sensor_id;sensor_type;location;lat;lon;timestamp;P1;durP1;ratioP1;P2;durP2;ratioP2
76115;SDS011;64847;45.778;12.802;2023-12-14T00:00:52;5.33;;;4.93;;
76115;SDS011;64847;45.778;12.802;2023-12-14T00:04:16;5.07;;;4.77;;
76115;SDS011;64847;45.778;12.802;2023-12-14T00:07:40;5.80;;;5.30;;
76115;SDS011;64847;45.778;12.802;2023-12-14T00:11:05;5.10;;;4.70;;
76115;SDS011;64847;45.778;12.802;2023-12-14T00:14:29;5.03;;;4.73;;
76115;SDS011;64847;45.778;12.802;2023-12-14T00:17:52;4.90;;;4.60;;
76115;SDS011;64847;45.778;12.802;2023-12-14T00:21:16;5.23;;;4.83;;
76115;SDS011;64847;45.778;12.802;2023-12-14T00:24:40;5.60;;;5.20;;
76115;SDS011;64847;45.778;12.802;2023-12-14T00:28:04;5.40;;;5.00;;
76115;SDS011;64847;45.778;12.802;2023-12-14T00:31:28;5.40;;;5.00;;
76115;SDS011;64847;45.778;12.802;2023-12-14T00:34:52;5.23;;;4.83;;
76115;SDS011;64847;45.778;12.802;2023-12-14T00:38:16;4.80;;;4.50;;
76115;SDS011;64847;45.778;12.802;2023-12-14T00:41:40;4.83;;;4.53;;
76115;SDS011;64847;45.778;12.802;2023-12-14T00:45:04;4.83;;;4.53;;
76115;SDS011;64847;45.778;12.802;2023-12-14T00:48:28;5.50;;;5.10;;
76115;SDS011;64847;45.778;12.802;2023-12-14T00:51:53;4.67;;;4.37;;
76115;SDS011;64847;45.778;12.802;2023-12-14T00:55:17;5.33;;;4.93;;
76115;SDS011;64847;45.778;12.802;2023-12-14T00:58:41;5.10;;;4.70;;
76115;SDS011;64847;45.778;12.802;2023-12-14T01:02:05;5.23;;;4.90;;
76115;SDS011;64847;45.778;12.802;2023-12-14T01:05:29;6.30;;;5.80;;
76115;SDS011;64847;45.778;12.802;2023-12-14T01:08:53;5.53;;;5.13;;
76115;SDS011;64847;45.778;12.802;2023-12-14T01:12:17;5.83;;;5.40;;
76115;SDS011;64847;45.778;12.802;2023-12-14T01:15:41;5.67;;;5.27;;
76115;SDS011;64847;45.778;12.802;2023-12-14T01:19:05;6.17;;;5.60;;
76115;SDS011;64847;45.778;12.802;2023-12-14T01:22:31;5.93;;;5.43;;
76115;SDS011;64847;45.778;12.802;2023-12-14T01:25:54;6.70;;;6.20;;
76115;SDS011;64847;45.778;12.802;2023-12-14T01:29:18;7.27;;;6.67;;
76115;SDS011;64847;45.778;12.802;2023-12-14T01:32:42;6.60;;;6.10;;
76115;SDS011;64847;45.778;12.802;2023-12-14T01:36:06;6.83;;;6.33;;
76115;SDS011;64847;45.778;12.802;2023-12-14T01:39:30;6.70;;;6.20;;
76115;SDS011;64847;45.778;12.802;2023-12-14T01:43:05;7.10;;;6.50;;
76115;SDS011;64847;45.778;12.802;2023-12-14T01:46:29;7.20;;;6.60;;
76115;SDS011;64847;45.778;12.802;2023-12-14T01:49:53;7.17;;;6.67;;
76115;SDS011;64847;45.778;12.802;2023-12-14T01:53:17;7.07;;;6.47;;
76115;SDS011;64847;45.778;12.802;2023-12-14T01:56:41;7.40;;;6.87;;
76115;SDS011;64847;45.778;12.802;2023-12-14T02:00:05;7.10;;;6.57;;
76115;SDS011;64847;45.778;12.802;2023-12-14T02:03:32;6.97;;;6.47;;
76115;SDS011;64847;45.778;12.802;2023-12-14T02:06:56;6.90;;;6.40;;
76115;SDS011;64847;45.778;12.802;2023-12-14T02:10:19;7.87;;;7.17;;
76115;SDS011;64847;45.778;12.802;2023-12-14T02:13:43;6.63;;;6.03;;
76115;SDS011;64847;45.778;12.802;2023-12-14T02:17:07;7.43;;;6.83;;
76115;SDS011;64847;45.778;12.802;2023-12-14T02:20:31;6.50;;;6.00;;
76115;SDS011;64847;45.778;12.802;2023-12-14T02:23:55;6.83;;;6.33;;
76115;SDS011;64847;45.778;12.802;2023-12-14T02:27:19;6.53;;;6.03;;
76115;SDS011;64847;45.778;12.802;2023-12-14T02:30:43;6.13;;;5.63;;
76115;SDS011;64847;45.778;12.802;2023-12-14T02:34:07;7.33;;;6.63;;
76115;SDS011;64847;45.778;12.802;2023-12-14T02:37:32;6.73;;;6.23;;
76115;SDS011;64847;45.778;12.802;2023-12-14T02:40:56;5.30;;;4.90;;
76115;SDS011;64847;45.778;12.802;2023-12-14T02:44:20;5.20;;;4.80;;
76115;SDS011;64847;45.778;12.802;2023-12-14T02:47:44;4.63;;;4.23;;
76115;SDS011;64847;45.778;12.802;2023-12-14T02:51:11;3.87;;;3.67;;
76115;SDS011;64847;45.778;12.802;2023-12-14T02:54:39;4.63;;;4.33;;
76115;SDS011;64847;45.778;12.802;2023-12-14T02:58:03;4.30;;;4.00;;
76115;SDS011;64847;45.778;12.802;2023-12-14T03:01:27;4.10;;;3.87;;
76115;SDS011;64847;45.778;12.802;2023-12-14T03:04:51;4.30;;;4.10;;
76115;SDS011;64847;45.778;12.802;2023-12-14T03:08:15;3.70;;;3.50;;
76115;SDS011;64847;45.778;12.802;2023-12-14T03:11:39;3.87;;;3.67;;
76115;SDS011;64847;45.778;12.802;2023-12-14T03:15:03;4.20;;;3.90;;
76115;SDS011;64847;45.778;12.802;2023-12-14T03:18:27;4.20;;;3.90;;
76115;SDS011;64847;45.778;12.802;2023-12-14T03:21:51;4.40;;;4.10;;
76115;SDS011;64847;45.778;12.802;2023-12-14T03:25:15;4.57;;;4.27;;
76115;SDS011;64847;45.778;12.802;2023-12-14T03:28:39;4.17;;;3.90;;
76115;SDS011;64847;45.778;12.802;2023-12-14T03:32:03;4.10;;;3.87;;
76115;SDS011;64847;45.778;12.802;2023-12-14T03:35:27;4.17;;;3.87;;
76115;SDS011;64847;45.778;12.802;2023-12-14T03:38:52;3.60;;;3.40;;
76115;SDS011;64847;45.778;12.802;2023-12-14T03:42:16;4.00;;;3.70;;
76115;SDS011;64847;45.778;12.802;2023-12-14T03:45:40;3.90;;;3.70;;
76115;SDS011;64847;45.778;12.802;2023-12-14T03:49:04;3.40;;;3.20;;
76115;SDS011;64847;45.778;12.802;2023-12-14T03:52:28;3.23;;;3.10;;
76115;SDS011;64847;45.778;12.802;2023-12-14T03:55:52;2.90;;;2.80;;
76115;SDS011;64847;45.778;12.802;2023-12-14T03:59:16;2.50;;;2.40;;
76115;SDS011;64847;45.778;12.802;2023-12-14T04:02:40;2.77;;;2.67;;
76115;SDS011;64847;45.778;12.802;2023-12-14T04:06:04;3.07;;;2.97;;
76115;SDS011;64847;45.778;12.802;2023-12-14T04:09:28;3.53;;;3.33;;
76115;SDS011;64847;45.778;12.802;2023-12-14T04:12:52;2.90;;;2.80;;
76115;SDS011;64847;45.778;12.802;2023-12-14T04:16:21;3.57;;;3.37;;
76115;SDS011;64847;45.778;12.802;2023-12-14T04:19:45;2.70;;;2.60;;
76115;SDS011;64847;45.778;12.802;2023-12-14T04:23:09;2.90;;;2.80;;
76115;SDS011;64847;45.778;12.802;2023-12-14T04:26:34;2.93;;;2.83;;
76115;SDS011;64847;45.778;12.802;2023-12-14T04:29:58;3.03;;;2.93;;
76115;SDS011;64847;45.778;12.802;2023-12-14T04:33:22;3.20;;;3.00;;
76115;SDS011;64847;45.778;12.802;2023-12-14T04:36:46;3.23;;;3.03;;
76115;SDS011;64847;45.778;12.802;2023-12-14T04:40:10;3.40;;;3.20;;
76115;SDS011;64847;45.778;12.802;2023-12-14T04:43:34;3.00;;;2.90;;
76115;SDS011;64847;45.778;12.802;2023-12-14T04:46:58;2.87;;;2.77;;
76115;SDS011;64847;45.778;12.802;2023-12-14T04:50:22;3.40;;;3.20;;
76115;SDS011;64847;45.778;12.802;2023-12-14T04:53:46;3.40;;;3.20;;
76115;SDS011;64847;45.778;12.802;2023-12-14T04:57:10;3.00;;;2.90;;
76115;SDS011;64847;45.778;12.802;2023-12-14T05:00:34;3.77;;;3.47;;
76115;SDS011;64847;45.778;12.802;2023-12-14T05:03:57;4.23;;;3.93;;
76115;SDS011;64847;45.778;12.802;2023-12-14T05:07:21;3.47;;;3.27;;
76115;SDS011;64847;45.778;12.802;2023-12-14T05:10:45;3.70;;;3.50;;
76115;SDS011;64847;45.778;12.802;2023-12-14T05:14:09;2.93;;;2.83;;
76115;SDS011;64847;45.778;12.802;2023-12-14T05:17:34;3.40;;;3.20;;
76115;SDS011;64847;45.778;12.802;2023-12-14T05:20:59;3.50;;;3.30;;
76115;SDS011;64847;45.778;12.802;2023-12-14T05:24:23;3.40;;;3.20;;
76115;SDS011;64847;45.778;12.802;2023-12-14T05:27:48;3.80;;;3.60;;
76115;SDS011;64847;45.778;12.802;2023-12-14T05:31:11;4.07;;;3.83;;
76115;SDS011;64847;45.778;12.802;2023-12-14T05:34:35;4.23;;;4.00;;
76115;SDS011;64847;45.778;12.802;2023-12-14T05:37:59;4.20;;;4.00;;
76115;SDS011;64847;45.778;12.802;2023-12-14T05:41:23;3.80;;;3.60;;
76115;SDS011;64847;45.778;12.802;2023-12-14T05:44:47;3.97;;;3.77;;
76115;SDS011;64847;45.778;12.802;2023-12-14T05:48:11;4.13;;;3.93;;
76115;SDS011;64847;45.778;12.802;2023-12-14T05:51:35;3.93;;;3.73;;
76115;SDS011;64847;45.778;12.802;2023-12-14T05:54:59;3.73;;;3.53;;
76115;SDS011;64847;45.778;12.802;2023-12-14T05:58:24;3.57;;;3.37;;
76115;SDS011;64847;45.778;12.802;2023-12-14T06:01:48;4.00;;;3.80;;
76115;SDS011;64847;45.778;12.802;2023-12-14T06:05:12;3.87;;;3.67;;
76115;SDS011;64847;45.778;12.802;2023-12-14T06:08:37;3.80;;;3.60;;
76115;SDS011;64847;45.778;12.802;2023-12-14T06:12:01;4.43;;;4.17;;
76115;SDS011;64847;45.778;12.802;2023-12-14T06:15:26;4.10;;;3.90;;
76115;SDS011;64847;45.778;12.802;2023-12-14T06:18:49;3.77;;;3.57;;
76115;SDS011;64847;45.778;12.802;2023-12-14T06:22:13;3.60;;;3.40;;
76115;SDS011;64847;45.778;12.802;2023-12-14T06:25:37;3.80;;;3.60;;
76115;SDS011;64847;45.778;12.802;2023-12-14T06:29:10;3.53;;;3.33;;
76115;SDS011;64847;45.778;12.802;2023-12-14T06:32:35;4.53;;;4.23;;
76115;SDS011;64847;45.778;12.802;2023-12-14T06:36:02;4.30;;;4.10;;
76115;SDS011;64847;45.778;12.802;2023-12-14T06:39:27;3.77;;;3.57;;
76115;SDS011;64847;45.778;12.802;2023-12-14T06:42:51;4.33;;;4.13;;
76115;SDS011;64847;45.778;12.802;2023-12-14T06:46:15;3.93;;;3.73;;
76115;SDS011;64847;45.778;12.802;2023-12-14T06:49:40;4.33;;;4.10;;
76115;SDS011;64847;45.778;12.802;2023-12-14T06:53:04;4.83;;;4.43;;
76115;SDS011;64847;45.778;12.802;2023-12-14T06:56:28;4.90;;;4.60;;
76115;SDS011;64847;45.778;12.802;2023-12-14T06:59:54;6.47;;;5.87;;
76115;SDS011;64847;45.778;12.802;2023-12-14T07:03:18;5.67;;;5.27;;
76115;SDS011;64847;45.778;12.802;2023-12-14T07:06:49;7.57;;;6.97;;
76115;SDS011;64847;45.778;12.802;2023-12-14T07:10:14;7.10;;;6.50;;
76115;SDS011;64847;45.778;12.802;2023-12-14T07:13:40;6.67;;;6.17;;
76115;SDS011;64847;45.778;12.802;2023-12-14T07:17:04;5.63;;;5.23;;
76115;SDS011;64847;45.778;12.802;2023-12-14T07:20:28;5.67;;;5.27;;
76115;SDS011;64847;45.778;12.802;2023-12-14T07:23:52;6.23;;;5.73;;
76115;SDS011;64847;45.778;12.802;2023-12-14T07:27:16;5.30;;;4.97;;
76115;SDS011;64847;45.778;12.802;2023-12-14T07:30:40;5.40;;;5.00;;
76115;SDS011;64847;45.778;12.802;2023-12-14T07:34:04;4.93;;;4.63;;
76115;SDS011;64847;45.778;12.802;2023-12-14T07:37:28;4.80;;;4.50;;
76115;SDS011;64847;45.778;12.802;2023-12-14T07:40:52;4.97;;;4.67;;
76115;SDS011;64847;45.778;12.802;2023-12-14T07:44:16;5.07;;;4.67;;
76115;SDS011;64847;45.778;12.802;2023-12-14T07:47:40;4.93;;;4.63;;
76115;SDS011;64847;45.778;12.802;2023-12-14T07:51:04;5.03;;;4.73;;
76115;SDS011;64847;45.778;12.802;2023-12-14T07:54:28;4.27;;;4.07;;
76115;SDS011;64847;45.778;12.802;2023-12-14T07:57:54;4.80;;;4.50;;
76115;SDS011;64847;45.778;12.802;2023-12-14T08:01:18;4.93;;;4.63;;
76115;SDS011;64847;45.778;12.802;2023-12-14T08:04:45;4.60;;;4.30;;
76115;SDS011;64847;45.778;12.802;2023-12-14T08:08:09;4.50;;;4.30;;
76115;SDS011;64847;45.778;12.802;2023-12-14T08:11:33;5.77;;;5.37;;
76115;SDS011;64847;45.778;12.802;2023-12-14T08:14:57;6.87;;;6.37;;
76115;SDS011;64847;45.778;12.802;2023-12-14T08:18:21;6.43;;;5.97;;
76115;SDS011;64847;45.778;12.802;2023-12-14T08:21:45;6.07;;;5.67;;
76115;SDS011;64847;45.778;12.802;2023-12-14T08:25:13;5.20;;;4.90;;
76115;SDS011;64847;45.778;12.802;2023-12-14T08:28:38;5.17;;;4.77;;
76115;SDS011;64847;45.778;12.802;2023-12-14T08:32:03;4.77;;;4.47;;
76115;SDS011;64847;45.778;12.802;2023-12-14T08:35:28;5.20;;;4.80;;
76115;SDS011;64847;45.778;12.802;2023-12-14T08:38:52;4.67;;;4.37;;
76115;SDS011;64847;45.778;12.802;2023-12-14T08:42:15;4.70;;;4.40;;
76115;SDS011;64847;45.778;12.802;2023-12-14T08:45:39;5.10;;;4.80;;
76115;SDS011;64847;45.778;12.802;2023-12-14T08:49:07;4.80;;;4.50;;
76115;SDS011;64847;45.778;12.802;2023-12-14T08:52:32;5.10;;;4.80;;
76115;SDS011;64847;45.778;12.802;2023-12-14T08:55:56;4.33;;;4.07;;
76115;SDS011;64847;45.778;12.802;2023-12-14T08:59:20;4.87;;;4.57;;
76115;SDS011;64847;45.778;12.802;2023-12-14T09:02:45;4.57;;;4.33;;
76115;SDS011;64847;45.778;12.802;2023-12-14T09:06:09;4.20;;;3.90;;
76115;SDS011;64847;45.778;12.802;2023-12-14T09:09:33;4.60;;;4.30;;
76115;SDS011;64847;45.778;12.802;2023-12-14T09:12:56;4.70;;;4.40;;
76115;SDS011;64847;45.778;12.802;2023-12-14T09:16:20;4.27;;;3.97;;
76115;SDS011;64847;45.778;12.802;2023-12-14T09:19:44;3.87;;;3.67;;
76115;SDS011;64847;45.778;12.802;2023-12-14T09:23:08;3.60;;;3.40;;
76115;SDS011;64847;45.778;12.802;2023-12-14T09:26:32;3.90;;;3.70;;
76115;SDS011;64847;45.778;12.802;2023-12-14T09:29:56;4.43;;;4.07;;
76115;SDS011;64847;45.778;12.802;2023-12-14T09:33:20;4.50;;;4.20;;
76115;SDS011;64847;45.778;12.802;2023-12-14T09:36:44;3.87;;;3.67;;
76115;SDS011;64847;45.778;12.802;2023-12-14T09:40:08;3.93;;;3.67;;
76115;SDS011;64847;45.778;12.802;2023-12-14T09:43:33;3.20;;;3.00;;
76115;SDS011;64847;45.778;12.802;2023-12-14T09:46:58;4.00;;;3.70;;
76115;SDS011;64847;45.778;12.802;2023-12-14T09:50:23;3.73;;;3.53;;
76115;SDS011;64847;45.778;12.802;2023-12-14T09:53:48;4.10;;;3.80;;
76115;SDS011;64847;45.778;12.802;2023-12-14T09:57:12;3.80;;;3.60;;
76115;SDS011;64847;45.778;12.802;2023-12-14T10:00:41;4.00;;;3.70;;
76115;SDS011;64847;45.778;12.802;2023-12-14T10:07:38;3.77;;;3.47;;
76115;SDS011;64847;45.778;12.802;2023-12-14T10:11:05;3.57;;;3.37;;
76115;SDS011;64847;45.778;12.802;2023-12-14T10:14:38;3.73;;;3.43;;
76115;SDS011;64847;45.778;12.802;2023-12-14T10:18:05;3.97;;;3.67;;
76115;SDS011;64847;45.778;12.802;2023-12-14T10:21:29;3.10;;;2.90;;
76115;SDS011;64847;45.778;12.802;2023-12-14T10:24:53;3.60;;;3.40;;
76115;SDS011;64847;45.778;12.802;2023-12-14T10:28:17;3.70;;;3.50;;
76115;SDS011;64847;45.778;12.802;2023-12-14T10:31:42;3.50;;;3.30;;
76115;SDS011;64847;45.778;12.802;2023-12-14T10:35:06;3.60;;;3.40;;
76115;SDS011;64847;45.778;12.802;2023-12-14T10:38:32;3.03;;;2.93;;
76115;SDS011;64847;45.778;12.802;2023-12-14T10:41:58;3.60;;;3.40;;
76115;SDS011;64847;45.778;12.802;2023-12-14T10:45:29;3.53;;;3.22;;
76115;SDS011;64847;45.778;12.802;2023-12-14T10:48:53;3.90;;;3.70;;
76115;SDS011;64847;45.778;12.802;2023-12-14T10:52:18;3.78;;;3.58;;
76115;SDS011;64847;45.778;12.802;2023-12-14T10:55:45;3.78;;;3.58;;
76115;SDS011;64847;45.778;12.802;2023-12-14T10:59:10;3.67;;;3.47;;
76115;SDS011;64847;45.778;12.802;2023-12-14T11:02:41;3.55;;;3.35;;
76115;SDS011;64847;45.778;12.802;2023-12-14T11:06:15;3.25;;;3.05;;
76115;SDS011;64847;45.778;12.802;2023-12-14T11:09:44;3.40;;;3.20;;
76115;SDS011;64847;45.778;12.802;2023-12-14T11:13:11;3.40;;;3.20;;
76115;SDS011;64847;45.778;12.802;2023-12-14T11:16:36;3.30;;;3.10;;
76115;SDS011;64847;45.778;12.802;2023-12-14T11:20:23;3.13;;;2.92;;
76115;SDS011;64847;45.778;12.802;2023-12-14T11:23:48;3.20;;;3.00;;
76115;SDS011;64847;45.778;12.802;2023-12-14T11:27:19;2.92;;;2.72;;
76115;SDS011;64847;45.778;12.802;2023-12-14T11:30:44;3.20;;;3.00;;
76115;SDS011;64847;45.778;12.802;2023-12-14T11:34:08;3.00;;;2.80;;
76115;SDS011;64847;45.778;12.802;2023-12-14T11:37:35;3.08;;;2.88;;
76115;SDS011;64847;45.778;12.802;2023-12-14T11:40:59;2.80;;;2.60;;
76115;SDS011;64847;45.778;12.802;2023-12-14T11:44:27;3.10;;;2.90;;
76115;SDS011;64847;45.778;12.802;2023-12-14T11:47:51;3.22;;;3.03;;
76115;SDS011;64847;45.778;12.802;2023-12-14T11:51:16;3.30;;;3.10;;
76115;SDS011;64847;45.778;12.802;2023-12-14T11:54:42;3.00;;;2.80;;
76115;SDS011;64847;45.778;12.802;2023-12-14T11:58:07;3.10;;;2.90;;
76115;SDS011;64847;45.778;12.802;2023-12-14T12:01:32;3.10;;;2.90;;
76115;SDS011;64847;45.778;12.802;2023-12-14T12:04:56;3.40;;;3.10;;
76115;SDS011;64847;45.778;12.802;2023-12-14T12:08:20;3.90;;;3.60;;
76115;SDS011;64847;45.778;12.802;2023-12-14T12:12:00;3.17;;;3.08;;
76115;SDS011;64847;45.778;12.802;2023-12-14T12:15:28;2.92;;;2.78;;
76115;SDS011;64847;45.778;12.802;2023-12-14T12:18:52;2.53;;;2.42;;
76115;SDS011;64847;45.778;12.802;2023-12-14T12:22:16;2.30;;;2.20;;
76115;SDS011;64847;45.778;12.802;2023-12-14T12:25:41;2.30;;;2.20;;
76115;SDS011;64847;45.778;12.802;2023-12-14T12:29:05;2.30;;;2.13;;
76115;SDS011;64847;45.778;12.802;2023-12-14T12:32:29;2.10;;;2.00;;
76115;SDS011;64847;45.778;12.802;2023-12-14T12:35:53;1.80;;;1.70;;
76115;SDS011;64847;45.778;12.802;2023-12-14T12:39:18;2.20;;;2.10;;
76115;SDS011;64847;45.778;12.802;2023-12-14T12:42:45;1.73;;;1.70;;
76115;SDS011;64847;45.778;12.802;2023-12-14T12:46:10;1.67;;;1.67;;
76115;SDS011;64847;45.778;12.802;2023-12-14T12:49:35;1.90;;;1.80;;
76115;SDS011;64847;45.778;12.802;2023-12-14T12:52:59;2.15;;;1.95;;
76115;SDS011;64847;45.778;12.802;2023-12-14T12:56:24;1.75;;;1.75;;
76115;SDS011;64847;45.778;12.802;2023-12-14T12:59:47;1.73;;;1.63;;
76115;SDS011;64847;45.778;12.802;2023-12-14T13:03:11;1.70;;;1.60;;
76115;SDS011;64847;45.778;12.802;2023-12-14T13:06:47;2.17;;;1.63;;
76115;SDS011;64847;45.778;12.802;2023-12-14T13:10:11;1.95;;;1.85;;
76115;SDS011;64847;45.778;12.802;2023-12-14T13:13:35;1.98;;;1.88;;
76115;SDS011;64847;45.778;12.802;2023-12-14T13:16:59;1.50;;;1.50;;
76115;SDS011;64847;45.778;12.802;2023-12-14T13:20:23;1.42;;;1.42;;
76115;SDS011;64847;45.778;12.802;2023-12-14T13:23:48;1.40;;;1.40;;
76115;SDS011;64847;45.778;12.802;2023-12-14T13:27:12;1.17;;;1.17;;
76115;SDS011;64847;45.778;12.802;2023-12-14T13:30:36;1.30;;;1.30;;
76115;SDS011;64847;45.778;12.802;2023-12-14T13:34:00;1.30;;;1.30;;
76115;SDS011;64847;45.778;12.802;2023-12-14T13:37:26;1.23;;;1.23;;
76115;SDS011;64847;45.778;12.802;2023-12-14T13:40:50;1.53;;;1.50;;
76115;SDS011;64847;45.778;12.802;2023-12-14T13:44:14;1.50;;;1.50;;
76115;SDS011;64847;45.778;12.802;2023-12-14T13:47:38;1.80;;;1.70;;
76115;SDS011;64847;45.778;12.802;2023-12-14T13:51:02;1.27;;;1.27;;
76115;SDS011;64847;45.778;12.802;2023-12-14T13:54:26;1.53;;;1.53;;
76115;SDS011;64847;45.778;12.802;2023-12-14T13:57:50;1.60;;;1.50;;
76115;SDS011;64847;45.778;12.802;2023-12-14T14:01:14;1.30;;;1.30;;
76115;SDS011;64847;45.778;12.802;2023-12-14T14:04:38;1.40;;;1.40;;
76115;SDS011;64847;45.778;12.802;2023-12-14T14:08:02;1.80;;;1.80;;
76115;SDS011;64847;45.778;12.802;2023-12-14T14:11:26;1.50;;;1.50;;
76115;SDS011;64847;45.778;12.802;2023-12-14T14:14:50;1.60;;;1.60;;
76115;SDS011;64847;45.778;12.802;2023-12-14T14:18:14;1.77;;;1.70;;
76115;SDS011;64847;45.778;12.802;2023-12-14T14:21:38;1.73;;;1.70;;
76115;SDS011;64847;45.778;12.802;2023-12-14T14:25:04;1.53;;;1.53;;
76115;SDS011;64847;45.778;12.802;2023-12-14T14:28:28;1.50;;;1.50;;
76115;SDS011;64847;45.778;12.802;2023-12-14T14:31:52;1.40;;;1.40;;
76115;SDS011;64847;45.778;12.802;2023-12-14T14:35:16;1.50;;;1.47;;
76115;SDS011;64847;45.778;12.802;2023-12-14T14:38:40;1.73;;;1.63;;
76115;SDS011;64847;45.778;12.802;2023-12-14T14:42:08;1.77;;;1.73;;
76115;SDS011;64847;45.778;12.802;2023-12-14T14:45:32;2.13;;;2.03;;
76115;SDS011;64847;45.778;12.802;2023-12-14T14:48:56;1.93;;;1.87;;
76115;SDS011;64847;45.778;12.802;2023-12-14T14:52:27;2.07;;;1.97;;
76115;SDS011;64847;45.778;12.802;2023-12-14T14:55:52;2.50;;;2.30;;
76115;SDS011;64847;45.778;12.802;2023-12-14T14:59:16;2.30;;;2.20;;
76115;SDS011;64847;45.778;12.802;2023-12-14T15:02:41;6.53;;;5.60;;
76115;SDS011;64847;45.778;12.802;2023-12-14T15:06:05;6.60;;;4.90;;
76115;SDS011;64847;45.778;12.802;2023-12-14T15:09:29;6.60;;;4.00;;
76115;SDS011;64847;45.778;12.802;2023-12-14T15:12:53;4.77;;;3.57;;
76115;SDS011;64847;45.778;12.802;2023-12-14T15:16:17;4.70;;;4.30;;
76115;SDS011;64847;45.778;12.802;2023-12-14T15:19:43;3.43;;;3.23;;
76115;SDS011;64847;45.778;12.802;2023-12-14T15:23:08;4.77;;;4.03;;
76115;SDS011;64847;45.778;12.802;2023-12-14T15:26:32;4.43;;;4.03;;
76115;SDS011;64847;45.778;12.802;2023-12-14T15:29:57;4.30;;;3.63;;
76115;SDS011;64847;45.778;12.802;2023-12-14T15:33:21;5.10;;;3.70;;
76115;SDS011;64847;45.778;12.802;2023-12-14T15:36:45;4.33;;;3.47;;
76115;SDS011;64847;45.778;12.802;2023-12-14T15:40:09;5.80;;;3.67;;
76115;SDS011;64847;45.778;12.802;2023-12-14T15:43:33;4.13;;;3.83;;
76115;SDS011;64847;45.778;12.802;2023-12-14T15:46:57;4.33;;;3.43;;
76115;SDS011;64847;45.778;12.802;2023-12-14T15:50:21;3.63;;;3.33;;
76115;SDS011;64847;45.778;12.802;2023-12-14T15:53:45;4.53;;;3.47;;
76115;SDS011;64847;45.778;12.802;2023-12-14T15:57:09;4.03;;;3.00;;
76115;SDS011;64847;45.778;12.802;2023-12-14T16:00:36;3.43;;;3.13;;
76115;SDS011;64847;45.778;12.802;2023-12-14T16:04:01;3.17;;;2.90;;
76115;SDS011;64847;45.778;12.802;2023-12-14T16:07:29;4.13;;;3.17;;
76115;SDS011;64847;45.778;12.802;2023-12-14T16:10:53;3.17;;;2.97;;
76115;SDS011;64847;45.778;12.802;2023-12-14T16:14:17;3.30;;;3.00;;
76115;SDS011;64847;45.778;12.802;2023-12-14T16:17:41;3.00;;;2.80;;
76115;SDS011;64847;45.778;12.802;2023-12-14T16:21:05;2.87;;;2.67;;
76115;SDS011;64847;45.778;12.802;2023-12-14T16:24:29;3.33;;;3.03;;
76115;SDS011;64847;45.778;12.802;2023-12-14T16:27:53;3.47;;;2.93;;
76115;SDS011;64847;45.778;12.802;2023-12-14T16:31:17;3.93;;;3.47;;
76115;SDS011;64847;45.778;12.802;2023-12-14T16:34:41;5.13;;;4.33;;
76115;SDS011;64847;45.778;12.802;2023-12-14T16:38:05;3.70;;;3.40;;
76115;SDS011;64847;45.778;12.802;2023-12-14T16:41:29;4.93;;;3.30;;
76115;SDS011;64847;45.778;12.802;2023-12-14T16:44:53;4.17;;;3.30;;
76115;SDS011;64847;45.778;12.802;2023-12-14T16:48:21;3.83;;;3.50;;
76115;SDS011;64847;45.778;12.802;2023-12-14T16:51:45;3.97;;;3.50;;
76115;SDS011;64847;45.778;12.802;2023-12-14T16:55:09;3.70;;;3.40;;
76115;SDS011;64847;45.778;12.802;2023-12-14T16:58:33;3.53;;;3.33;;
76115;SDS011;64847;45.778;12.802;2023-12-14T17:01:57;3.47;;;3.17;;
76115;SDS011;64847;45.778;12.802;2023-12-14T17:05:21;3.10;;;2.87;;
76115;SDS011;64847;45.778;12.802;2023-12-14T17:08:46;3.50;;;3.20;;
76115;SDS011;64847;45.778;12.802;2023-12-14T17:12:14;3.07;;;2.83;;
76115;SDS011;64847;45.778;12.802;2023-12-14T17:15:38;3.40;;;3.07;;
76115;SDS011;64847;45.778;12.802;2023-12-14T17:19:01;4.10;;;3.80;;
76115;SDS011;64847;45.778;12.802;2023-12-14T17:22:25;6.80;;;5.40;;
76115;SDS011;64847;45.778;12.802;2023-12-14T17:25:51;7.40;;;5.83;;
76115;SDS011;64847;45.778;12.802;2023-12-14T17:29:15;18.40;;;10.47;;
76115;SDS011;64847;45.778;12.802;2023-12-14T17:32:39;19.57;;;11.17;;
76115;SDS011;64847;45.778;12.802;2023-12-14T17:36:03;20.77;;;11.33;;
76115;SDS011;64847;45.778;12.802;2023-12-14T17:39:27;26.50;;;15.90;;
76115;SDS011;64847;45.778;12.802;2023-12-14T17:42:51;26.33;;;15.77;;
76115;SDS011;64847;45.778;12.802;2023-12-14T17:46:15;24.17;;;14.10;;
76115;SDS011;64847;45.778;12.802;2023-12-14T17:49:39;24.67;;;15.60;;
76115;SDS011;64847;45.778;12.802;2023-12-14T17:53:03;27.40;;;17.90;;
76115;SDS011;64847;45.778;12.802;2023-12-14T17:56:27;28.73;;;19.23;;
76115;SDS011;64847;45.778;12.802;2023-12-14T17:59:51;30.50;;;21.47;;
76115;SDS011;64847;45.778;12.802;2023-12-14T18:03:14;34.70;;;22.90;;
76115;SDS011;64847;45.778;12.802;2023-12-14T18:06:43;32.43;;;22.90;;
76115;SDS011;64847;45.778;12.802;2023-12-14T18:10:07;32.77;;;22.27;;
76115;SDS011;64847;45.778;12.802;2023-12-14T18:13:32;26.80;;;20.17;;
76115;SDS011;64847;45.778;12.802;2023-12-14T18:16:57;22.67;;;19.23;;
76115;SDS011;64847;45.778;12.802;2023-12-14T18:20:21;21.03;;;17.50;;
76115;SDS011;64847;45.778;12.802;2023-12-14T18:23:45;19.23;;;17.13;;
76115;SDS011;64847;45.778;12.802;2023-12-14T18:27:09;18.63;;;15.33;;
76115;SDS011;64847;45.778;12.802;2023-12-14T18:30:33;16.90;;;14.70;;
76115;SDS011;64847;45.778;12.802;2023-12-14T18:34:00;16.53;;;14.47;;
76115;SDS011;64847;45.778;12.802;2023-12-14T18:37:24;15.63;;;13.97;;
76115;SDS011;64847;45.778;12.802;2023-12-14T18:40:48;15.27;;;13.23;;
76115;SDS011;64847;45.778;12.802;2023-12-14T18:44:12;13.43;;;12.07;;
76115;SDS011;64847;45.778;12.802;2023-12-14T18:47:35;10.97;;;9.87;;
76115;SDS011;64847;45.778;12.802;2023-12-14T18:51:00;9.63;;;8.70;;
76115;SDS011;64847;45.778;12.802;2023-12-14T18:54:25;9.27;;;8.37;;
76115;SDS011;64847;45.778;12.802;2023-12-14T18:57:49;9.07;;;8.23;;
76115;SDS011;64847;45.778;12.802;2023-12-14T19:05:02;7.07;;;6.37;;
76115;SDS011;64847;45.778;12.802;2023-12-14T19:08:33;6.20;;;5.70;;
76115;SDS011;64847;45.778;12.802;2023-12-14T19:11:57;6.43;;;5.90;;
76115;SDS011;64847;45.778;12.802;2023-12-14T19:15:21;6.77;;;6.07;;
76115;SDS011;64847;45.778;12.802;2023-12-14T19:18:52;6.90;;;6.30;;
76115;SDS011;64847;45.778;12.802;2023-12-14T19:22:18;7.67;;;6.97;;
76115;SDS011;64847;45.778;12.802;2023-12-14T19:25:41;6.73;;;6.23;;
76115;SDS011;64847;45.778;12.802;2023-12-14T19:29:06;7.03;;;6.37;;
76115;SDS011;64847;45.778;12.802;2023-12-14T19:32:33;7.27;;;6.63;;
76115;SDS011;64847;45.778;12.802;2023-12-14T19:35:56;6.77;;;6.17;;
76115;SDS011;64847;45.778;12.802;2023-12-14T19:39:20;6.33;;;5.90;;
76115;SDS011;64847;45.778;12.802;2023-12-14T19:42:46;6.00;;;5.50;;
76115;SDS011;64847;45.778;12.802;2023-12-14T19:46:15;5.73;;;5.33;;
76115;SDS011;64847;45.778;12.802;2023-12-14T19:49:42;6.13;;;5.63;;
76115;SDS011;64847;45.778;12.802;2023-12-14T19:53:09;5.80;;;5.30;;
76115;SDS011;64847;45.778;12.802;2023-12-14T19:56:34;5.53;;;5.13;;
76115;SDS011;64847;45.778;12.802;2023-12-14T19:59:58;5.37;;;4.97;;
76115;SDS011;64847;45.778;12.802;2023-12-14T20:03:33;6.43;;;5.93;;
76115;SDS011;64847;45.778;12.802;2023-12-14T20:07:02;7.33;;;6.63;;
76115;SDS011;64847;45.778;12.802;2023-12-14T20:10:28;8.07;;;7.37;;
76115;SDS011;64847;45.778;12.802;2023-12-14T20:13:54;7.80;;;7.10;;
76115;SDS011;64847;45.778;12.802;2023-12-14T20:17:18;8.83;;;8.03;;
76115;SDS011;64847;45.778;12.802;2023-12-14T20:20:43;8.37;;;7.57;;